sensor_id;sensor_type;location;lat;lon;timestamp;temperature;humidity
4840;DHT22;2434;48.486;7.964;2023-01-10T00:01:06;6.60;84.20
4840;DHT22;2434;48.486;7.964;2023-01-10T00:03:35;6.50;84.80
4840;DHT22;2434;48.486;7.964;2023-01-10T00:06:03;6.50;86.00
4840;DHT22;2434;48.486;7.964;2023-01-10T00:08:31;6.50;85.70
4840;DHT22;2434;48.486;7.964;2023-01-10T00:10:59;6.60;84.70
4840;DHT22;2434;48.486;7.964;2023-01-10T00:13:51;6.60;84.50
4840;DHT22;2434;48.486;7.964;2023-01-10T00:16:20;6.60;85.50
4840;DHT22;2434;48.486;7.964;2023-01-10T00:18:49;6.60;85.90
4840;DHT22;2434;48.486;7.964;2023-01-10T00:21:17;6.60;84.80
4840;DHT22;2434;48.486;7.964;2023-01-10T00:23:45;6.60;84.20
4840;DHT22;2434;48.486;7.964;2023-01-10T00:26:15;6.60;85.30
4840;DHT22;2434;48.486;7.964;2023-01-10T00:28:43;6.50;85.80
4840;DHT22;2434;48.486;7.964;2023-01-10T00:31:12;6.50;85.10
4840;DHT22;2434;48.486;7.964;2023-01-10T00:33:43;6.50;84.70
4840;DHT22;2434;48.486;7.964;2023-01-10T00:36:12;6.50;84.80
4840;DHT22;2434;48.486;7.964;2023-01-10T00:38:40;6.50;85.40
4840;DHT22;2434;48.486;7.964;2023-01-10T00:41:09;6.40;85.90
4840;DHT22;2434;48.486;7.964;2023-01-10T00:43:51;6.50;84.50
4840;DHT22;2434;48.486;7.964;2023-01-10T00:52:06;6.40;85.50
4840;DHT22;2434;48.486;7.964;2023-01-10T00:54:34;6.50;86.10
4840;DHT22;2434;48.486;7.964;2023-01-10T00:57:03;6.50;85.50
4840;DHT22;2434;48.486;7.964;2023-01-10T00:59:31;6.40;84.60
4840;DHT22;2434;48.486;7.964;2023-01-10T01:01:59;6.50;84.70
4840;DHT22;2434;48.486;7.964;2023-01-10T01:04:27;6.50;84.70
4840;DHT22;2434;48.486;7.964;2023-01-10T01:07:00;6.50;85.00
4840;DHT22;2434;48.486;7.964;2023-01-10T01:09:30;6.60;84.40
4840;DHT22;2434;48.486;7.964;2023-01-10T01:11:59;6.50;84.30
4840;DHT22;2434;48.486;7.964;2023-01-10T01:14:27;6.60;83.90
4840;DHT22;2434;48.486;7.964;2023-01-10T01:16:55;6.70;85.30
4840;DHT22;2434;48.486;7.964;2023-01-10T01:19:24;6.50;84.80
4840;DHT22;2434;48.486;7.964;2023-01-10T01:21:53;6.30;84.80
4840;DHT22;2434;48.486;7.964;2023-01-10T01:24:21;6.20;85.40
4840;DHT22;2434;48.486;7.964;2023-01-10T01:26:52;6.20;86.00
4840;DHT22;2434;48.486;7.964;2023-01-10T01:29:20;6.20;86.60
4840;DHT22;2434;48.486;7.964;2023-01-10T01:32:08;6.30;86.00
4840;DHT22;2434;48.486;7.964;2023-01-10T01:34:57;6.40;86.20
4840;DHT22;2434;48.486;7.964;2023-01-10T01:37:25;6.40;85.40
4840;DHT22;2434;48.486;7.964;2023-01-10T01:39:53;6.40;85.50
4840;DHT22;2434;48.486;7.964;2023-01-10T01:42:26;6.40;85.70
4840;DHT22;2434;48.486;7.964;2023-01-10T01:45:30;6.40;85.70
4840;DHT22;2434;48.486;7.964;2023-01-10T01:48:03;6.60;85.00
4840;DHT22;2434;48.486;7.964;2023-01-10T01:50:36;6.70;83.50
4840;DHT22;2434;48.486;7.964;2023-01-10T01:53:10;6.70;82.90
4840;DHT22;2434;48.486;7.964;2023-01-10T01:55:39;6.70;83.40
4840;DHT22;2434;48.486;7.964;2023-01-10T01:58:14;6.70;83.40
4840;DHT22;2434;48.486;7.964;2023-01-10T02:00:43;6.70;83.50
4840;DHT22;2434;48.486;7.964;2023-01-10T02:03:13;6.70;83.20
4840;DHT22;2434;48.486;7.964;2023-01-10T02:05:43;6.80;83.20
4840;DHT22;2434;48.486;7.964;2023-01-10T02:08:12;6.90;82.70
4840;DHT22;2434;48.486;7.964;2023-01-10T02:10:44;6.90;82.10
4840;DHT22;2434;48.486;7.964;2023-01-10T02:13:18;6.90;81.60
4840;DHT22;2434;48.486;7.964;2023-01-10T02:15:48;7.00;81.40
4840;DHT22;2434;48.486;7.964;2023-01-10T02:18:17;7.00;81.90
4840;DHT22;2434;48.486;7.964;2023-01-10T02:21:01;7.00;81.60
4840;DHT22;2434;48.486;7.964;2023-01-10T02:24:03;6.90;81.40
4840;DHT22;2434;48.486;7.964;2023-01-10T02:33:03;6.90;81.90
4840;DHT22;2434;48.486;7.964;2023-01-10T02:35:51;6.90;81.60
4840;DHT22;2434;48.486;7.964;2023-01-10T02:38:31;6.70;82.60
4840;DHT22;2434;48.486;7.964;2023-01-10T02:41:12;6.80;82.30
4840;DHT22;2434;48.486;7.964;2023-01-10T02:43:45;6.80;82.20
4840;DHT22;2434;48.486;7.964;2023-01-10T02:46:17;6.90;81.60
4840;DHT22;2434;48.486;7.964;2023-01-10T02:48:52;6.90;81.70
4840;DHT22;2434;48.486;7.964;2023-01-10T02:51:22;6.90;80.90
4840;DHT22;2434;48.486;7.964;2023-01-10T02:53:54;6.80;82.60
4840;DHT22;2434;48.486;7.964;2023-01-10T03:00:06;6.90;80.90
4840;DHT22;2434;48.486;7.964;2023-01-10T03:02:52;6.90;81.30
4840;DHT22;2434;48.486;7.964;2023-01-10T03:05:38;6.90;81.30
4840;DHT22;2434;48.486;7.964;2023-01-10T03:08:19;6.90;81.30
4840;DHT22;2434;48.486;7.964;2023-01-10T03:10:55;6.90;81.20
4840;DHT22;2434;48.486;7.964;2023-01-10T03:13:26;6.90;81.00
4840;DHT22;2434;48.486;7.964;2023-01-10T03:15:56;6.90;81.30
4840;DHT22;2434;48.486;7.964;2023-01-10T03:18:30;6.90;81.10
4840;DHT22;2434;48.486;7.964;2023-01-10T03:21:02;6.80;80.90
4840;DHT22;2434;48.486;7.964;2023-01-10T03:23:33;6.80;80.50
4840;DHT22;2434;48.486;7.964;2023-01-10T03:26:02;6.90;80.10
4840;DHT22;2434;48.486;7.964;2023-01-10T03:28:36;6.90;79.80
4840;DHT22;2434;48.486;7.964;2023-01-10T03:31:09;6.80;80.60
4840;DHT22;2434;48.486;7.964;2023-01-10T03:33:38;6.90;80.00
4840;DHT22;2434;48.486;7.964;2023-01-10T03:36:13;6.90;79.90
4840;DHT22;2434;48.486;7.964;2023-01-10T03:38:50;6.80;79.70
4840;DHT22;2434;48.486;7.964;2023-01-10T03:41:27;6.80;80.90
4840;DHT22;2434;48.486;7.964;2023-01-10T03:44:03;6.70;79.60
4840;DHT22;2434;48.486;7.964;2023-01-10T03:46:54;6.80;79.30
4840;DHT22;2434;48.486;7.964;2023-01-10T03:49:24;6.70;79.60
4840;DHT22;2434;48.486;7.964;2023-01-10T03:51:56;6.70;80.00
4840;DHT22;2434;48.486;7.964;2023-01-10T03:54:25;6.70;80.40
4840;DHT22;2434;48.486;7.964;2023-01-10T03:56:54;6.80;80.00
4840;DHT22;2434;48.486;7.964;2023-01-10T03:59:24;6.80;79.50
4840;DHT22;2434;48.486;7.964;2023-01-10T04:01:53;6.70;80.10
4840;DHT22;2434;48.486;7.964;2023-01-10T04:04:22;6.80;80.30
4840;DHT22;2434;48.486;7.964;2023-01-10T04:06:50;6.80;80.30
4840;DHT22;2434;48.486;7.964;2023-01-10T04:09:20;6.70;78.00
4840;DHT22;2434;48.486;7.964;2023-01-10T04:11:48;6.60;79.90
4840;DHT22;2434;48.486;7.964;2023-01-10T04:14:16;6.50;79.70
4840;DHT22;2434;48.486;7.964;2023-01-10T04:16:44;6.50;78.80
4840;DHT22;2434;48.486;7.964;2023-01-10T04:19:13;6.40;78.70
4840;DHT22;2434;48.486;7.964;2023-01-10T04:21:41;6.40;78.50
4840;DHT22;2434;48.486;7.964;2023-01-10T04:24:09;6.60;80.20
4840;DHT22;2434;48.486;7.964;2023-01-10T04:26:39;6.70;78.70
4840;DHT22;2434;48.486;7.964;2023-01-10T04:29:07;6.80;78.50
4840;DHT22;2434;48.486;7.964;2023-01-10T04:31:36;6.90;77.90
4840;DHT22;2434;48.486;7.964;2023-01-10T04:34:06;6.90;77.90
4840;DHT22;2434;48.486;7.964;2023-01-10T04:36:34;6.90;77.70
4840;DHT22;2434;48.486;7.964;2023-01-10T04:39:03;7.00;77.80
4840;DHT22;2434;48.486;7.964;2023-01-10T04:41:32;7.00;77.50
4840;DHT22;2434;48.486;7.964;2023-01-10T04:44:02;6.90;77.80
4840;DHT22;2434;48.486;7.964;2023-01-10T04:46:30;6.90;78.30
4840;DHT22;2434;48.486;7.964;2023-01-10T04:48:59;6.90;79.80
4840;DHT22;2434;48.486;7.964;2023-01-10T04:51:27;6.90;79.60
4840;DHT22;2434;48.486;7.964;2023-01-10T04:53:56;6.90;80.50
4840;DHT22;2434;48.486;7.964;2023-01-10T04:56:24;6.90;79.60
4840;DHT22;2434;48.486;7.964;2023-01-10T04:58:52;6.90;80.10
4840;DHT22;2434;48.486;7.964;2023-01-10T05:01:23;6.90;80.50
4840;DHT22;2434;48.486;7.964;2023-01-10T05:03:54;6.90;80.20
4840;DHT22;2434;48.486;7.964;2023-01-10T05:06:23;6.90;80.10
4840;DHT22;2434;48.486;7.964;2023-01-10T05:08:51;6.90;79.80
4840;DHT22;2434;48.486;7.964;2023-01-10T05:11:19;6.90;80.30
4840;DHT22;2434;48.486;7.964;2023-01-10T05:13:48;6.80;80.40
4840;DHT22;2434;48.486;7.964;2023-01-10T05:16:16;6.80;79.50
4840;DHT22;2434;48.486;7.964;2023-01-10T05:18:46;6.80;79.80
4840;DHT22;2434;48.486;7.964;2023-01-10T05:21:14;6.70;79.70
4840;DHT22;2434;48.486;7.964;2023-01-10T05:23:42;6.70;80.00
4840;DHT22;2434;48.486;7.964;2023-01-10T05:26:12;6.60;80.10
4840;DHT22;2434;48.486;7.964;2023-01-10T05:28:41;6.60;80.30
4840;DHT22;2434;48.486;7.964;2023-01-10T05:31:12;6.60;79.90
4840;DHT22;2434;48.486;7.964;2023-01-10T05:33:43;6.60;79.90
4840;DHT22;2434;48.486;7.964;2023-01-10T05:36:14;6.60;79.80
4840;DHT22;2434;48.486;7.964;2023-01-10T05:38:42;6.60;79.70
4840;DHT22;2434;48.486;7.964;2023-01-10T05:41:10;6.70;79.90
4840;DHT22;2434;48.486;7.964;2023-01-10T05:43:39;6.60;79.70
4840;DHT22;2434;48.486;7.964;2023-01-10T05:46:07;6.60;79.90
4840;DHT22;2434;48.486;7.964;2023-01-10T05:48:36;6.60;79.60
4840;DHT22;2434;48.486;7.964;2023-01-10T05:51:05;6.60;79.80
4840;DHT22;2434;48.486;7.964;2023-01-10T05:53:34;6.60;78.90
4840;DHT22;2434;48.486;7.964;2023-01-10T05:56:03;6.60;78.30
4840;DHT22;2434;48.486;7.964;2023-01-10T05:58:33;6.60;78.10
4840;DHT22;2434;48.486;7.964;2023-01-10T06:01:01;6.50;77.80
4840;DHT22;2434;48.486;7.964;2023-01-10T06:03:29;6.50;78.50
4840;DHT22;2434;48.486;7.964;2023-01-10T06:05:58;6.50;78.20
4840;DHT22;2434;48.486;7.964;2023-01-10T06:08:26;6.60;78.10
4840;DHT22;2434;48.486;7.964;2023-01-10T06:10:55;6.60;77.80
4840;DHT22;2434;48.486;7.964;2023-01-10T06:13:24;6.50;78.00
4840;DHT22;2434;48.486;7.964;2023-01-10T06:15:52;6.50;77.80
4840;DHT22;2434;48.486;7.964;2023-01-10T06:18:20;6.50;77.50
4840;DHT22;2434;48.486;7.964;2023-01-10T06:20:48;6.50;78.80
4840;DHT22;2434;48.486;7.964;2023-01-10T06:23:16;6.50;77.20
4840;DHT22;2434;48.486;7.964;2023-01-10T06:25:45;6.40;77.80
4840;DHT22;2434;48.486;7.964;2023-01-10T06:28:14;6.40;77.70
4840;DHT22;2434;48.486;7.964;2023-01-10T06:30:43;6.40;78.10
4840;DHT22;2434;48.486;7.964;2023-01-10T06:33:11;6.30;79.00
4840;DHT22;2434;48.486;7.964;2023-01-10T06:35:40;6.40;78.70
4840;DHT22;2434;48.486;7.964;2023-01-10T06:38:09;6.30;78.90
4840;DHT22;2434;48.486;7.964;2023-01-10T06:40:37;6.20;80.00
4840;DHT22;2434;48.486;7.964;2023-01-10T06:43:05;6.20;79.50
4840;DHT22;2434;48.486;7.964;2023-01-10T06:45:35;6.20;79.20
4840;DHT22;2434;48.486;7.964;2023-01-10T06:48:03;6.20;79.40
4840;DHT22;2434;48.486;7.964;2023-01-10T06:50:32;6.30;78.50
4840;DHT22;2434;48.486;7.964;2023-01-10T06:53:02;6.20;78.30
4840;DHT22;2434;48.486;7.964;2023-01-10T06:55:31;6.20;79.60
4840;DHT22;2434;48.486;7.964;2023-01-10T06:58:00;6.20;79.30
4840;DHT22;2434;48.486;7.964;2023-01-10T07:00:29;6.20;78.80
4840;DHT22;2434;48.486;7.964;2023-01-10T07:03:00;6.20;79.30
4840;DHT22;2434;48.486;7.964;2023-01-10T07:05:29;6.20;79.40
4840;DHT22;2434;48.486;7.964;2023-01-10T07:07:57;6.20;79.90
4840;DHT22;2434;48.486;7.964;2023-01-10T07:10:27;6.20;78.60
4840;DHT22;2434;48.486;7.964;2023-01-10T07:12:56;6.20;78.00
4840;DHT22;2434;48.486;7.964;2023-01-10T07:15:24;6.20;78.30
4840;DHT22;2434;48.486;7.964;2023-01-10T07:17:56;6.20;77.90
4840;DHT22;2434;48.486;7.964;2023-01-10T07:20:43;6.20;79.10
4840;DHT22;2434;48.486;7.964;2023-01-10T07:23:30;6.20;78.50
4840;DHT22;2434;48.486;7.964;2023-01-10T07:26:19;6.20;77.80
4840;DHT22;2434;48.486;7.964;2023-01-10T07:28:50;6.20;77.70
4840;DHT22;2434;48.486;7.964;2023-01-10T07:31:18;6.10;77.80
4840;DHT22;2434;48.486;7.964;2023-01-10T07:33:49;6.10;79.20
4840;DHT22;2434;48.486;7.964;2023-01-10T07:36:19;6.10;78.20
4840;DHT22;2434;48.486;7.964;2023-01-10T07:38:52;6.10;78.30
4840;DHT22;2434;48.486;7.964;2023-01-10T07:41:20;6.00;78.50
4840;DHT22;2434;48.486;7.964;2023-01-10T07:43:48;6.00;78.90
4840;DHT22;2434;48.486;7.964;2023-01-10T07:46:35;6.00;78.00
4840;DHT22;2434;48.486;7.964;2023-01-10T07:49:19;6.00;78.70
4840;DHT22;2434;48.486;7.964;2023-01-10T07:52:07;6.00;78.30
4840;DHT22;2434;48.486;7.964;2023-01-10T07:54:56;6.00;78.20
4840;DHT22;2434;48.486;7.964;2023-01-10T07:57:24;6.10;78.70
4840;DHT22;2434;48.486;7.964;2023-01-10T07:59:53;6.10;77.70
4840;DHT22;2434;48.486;7.964;2023-01-10T08:02:21;6.10;76.00
4840;DHT22;2434;48.486;7.964;2023-01-10T08:04:50;6.10;75.90
4840;DHT22;2434;48.486;7.964;2023-01-10T08:07:20;6.00;76.80
4840;DHT22;2434;48.486;7.964;2023-01-10T08:09:48;6.00;76.10
4840;DHT22;2434;48.486;7.964;2023-01-10T08:12:16;6.00;76.10
4840;DHT22;2434;48.486;7.964;2023-01-10T08:14:45;6.00;76.30
4840;DHT22;2434;48.486;7.964;2023-01-10T08:17:32;6.10;75.50
4840;DHT22;2434;48.486;7.964;2023-01-10T08:20:03;6.00;75.70
4840;DHT22;2434;48.486;7.964;2023-01-10T08:22:33;6.10;75.50
4840;DHT22;2434;48.486;7.964;2023-01-10T08:25:02;6.10;75.80
4840;DHT22;2434;48.486;7.964;2023-01-10T08:27:30;6.10;74.80
4840;DHT22;2434;48.486;7.964;2023-01-10T08:29:59;6.10;74.70
4840;DHT22;2434;48.486;7.964;2023-01-10T08:32:27;6.10;74.80
4840;DHT22;2434;48.486;7.964;2023-01-10T08:34:55;6.10;74.70
4840;DHT22;2434;48.486;7.964;2023-01-10T08:37:23;6.20;74.80
4840;DHT22;2434;48.486;7.964;2023-01-10T08:39:53;6.20;75.00
4840;DHT22;2434;48.486;7.964;2023-01-10T08:42:21;6.10;74.50
4840;DHT22;2434;48.486;7.964;2023-01-10T08:44:49;6.10;74.20
4840;DHT22;2434;48.486;7.964;2023-01-10T08:47:17;6.00;74.60
4840;DHT22;2434;48.486;7.964;2023-01-10T08:49:46;6.10;74.10
4840;DHT22;2434;48.486;7.964;2023-01-10T08:52:15;6.00;74.00
4840;DHT22;2434;48.486;7.964;2023-01-10T08:54:44;6.10;74.80
4840;DHT22;2434;48.486;7.964;2023-01-10T08:57:13;6.10;74.50
4840;DHT22;2434;48.486;7.964;2023-01-10T08:59:41;6.10;75.50
4840;DHT22;2434;48.486;7.964;2023-01-10T09:02:12;6.10;74.80
4840;DHT22;2434;48.486;7.964;2023-01-10T09:04:40;6.10;74.80
4840;DHT22;2434;48.486;7.964;2023-01-10T09:07:08;6.10;74.60
4840;DHT22;2434;48.486;7.964;2023-01-10T09:09:36;6.00;74.00
4840;DHT22;2434;48.486;7.964;2023-01-10T09:12:05;6.00;74.60
4840;DHT22;2434;48.486;7.964;2023-01-10T09:14:54;6.00;74.60
4840;DHT22;2434;48.486;7.964;2023-01-10T09:17:23;6.10;74.90
4840;DHT22;2434;48.486;7.964;2023-01-10T09:19:51;6.10;74.60
4840;DHT22;2434;48.486;7.964;2023-01-10T09:22:19;6.10;74.90
4840;DHT22;2434;48.486;7.964;2023-01-10T09:24:47;6.10;75.10
4840;DHT22;2434;48.486;7.964;2023-01-10T09:27:15;6.10;74.80
4840;DHT22;2434;48.486;7.964;2023-01-10T09:29:44;6.10;75.70
4840;DHT22;2434;48.486;7.964;2023-01-10T09:32:14;6.10;75.00
4840;DHT22;2434;48.486;7.964;2023-01-10T09:34:42;6.10;74.80
4840;DHT22;2434;48.486;7.964;2023-01-10T09:37:10;6.20;74.90
4840;DHT22;2434;48.486;7.964;2023-01-10T09:39:39;6.20;74.20
4840;DHT22;2434;48.486;7.964;2023-01-10T09:45:08;6.20;74.60
4840;DHT22;2434;48.486;7.964;2023-01-10T09:47:46;6.20;75.20
4840;DHT22;2434;48.486;7.964;2023-01-10T09:50:27;6.20;75.30
4840;DHT22;2434;48.486;7.964;2023-01-10T09:53:03;6.20;75.80
4840;DHT22;2434;48.486;7.964;2023-01-10T09:55:35;6.20;76.20
4840;DHT22;2434;48.486;7.964;2023-01-10T09:58:08;6.20;76.10
4840;DHT22;2434;48.486;7.964;2023-01-10T10:00:43;6.20;76.30
4840;DHT22;2434;48.486;7.964;2023-01-10T10:03:22;6.30;76.30
4840;DHT22;2434;48.486;7.964;2023-01-10T10:05:52;6.30;76.00
4840;DHT22;2434;48.486;7.964;2023-01-10T10:08:36;6.20;76.10
4840;DHT22;2434;48.486;7.964;2023-01-10T10:11:20;6.30;76.90
4840;DHT22;2434;48.486;7.964;2023-01-10T10:13:54;6.30;76.30
4840;DHT22;2434;48.486;7.964;2023-01-10T10:16:37;6.30;76.70
4840;DHT22;2434;48.486;7.964;2023-01-10T10:19:17;6.40;77.10
4840;DHT22;2434;48.486;7.964;2023-01-10T10:21:53;6.40;77.50
4840;DHT22;2434;48.486;7.964;2023-01-10T10:24:33;6.40;76.70
4840;DHT22;2434;48.486;7.964;2023-01-10T10:27:12;6.40;77.00
4840;DHT22;2434;48.486;7.964;2023-01-10T10:30:07;6.30;76.20
4840;DHT22;2434;48.486;7.964;2023-01-10T10:32:51;6.40;76.60
4840;DHT22;2434;48.486;7.964;2023-01-10T10:35:29;6.40;76.40
4840;DHT22;2434;48.486;7.964;2023-01-10T10:38:04;6.40;76.20
4840;DHT22;2434;48.486;7.964;2023-01-10T10:40:38;6.40;76.80
4840;DHT22;2434;48.486;7.964;2023-01-10T10:43:14;6.50;77.10
4840;DHT22;2434;48.486;7.964;2023-01-10T10:45:48;6.50;75.90
4840;DHT22;2434;48.486;7.964;2023-01-10T10:48:23;6.60;76.30
4840;DHT22;2434;48.486;7.964;2023-01-10T10:51:02;6.60;75.90
4840;DHT22;2434;48.486;7.964;2023-01-10T10:53:32;6.70;76.40
4840;DHT22;2434;48.486;7.964;2023-01-10T10:56:02;6.80;76.50
4840;DHT22;2434;48.486;7.964;2023-01-10T10:58:30;6.90;74.40
4840;DHT22;2434;48.486;7.964;2023-01-10T11:01:00;6.90;73.60
4840;DHT22;2434;48.486;7.964;2023-01-10T11:03:34;6.80;74.10
4840;DHT22;2434;48.486;7.964;2023-01-10T11:06:06;6.90;74.70
4840;DHT22;2434;48.486;7.964;2023-01-10T11:08:37;7.00;74.80
4840;DHT22;2434;48.486;7.964;2023-01-10T11:11:15;7.10;75.10
4840;DHT22;2434;48.486;7.964;2023-01-10T11:13:47;7.20;73.90
4840;DHT22;2434;48.486;7.964;2023-01-10T11:16:25;7.30;73.40
4840;DHT22;2434;48.486;7.964;2023-01-10T11:19:09;7.30;73.40
4840;DHT22;2434;48.486;7.964;2023-01-10T11:21:40;7.40;73.30
4840;DHT22;2434;48.486;7.964;2023-01-10T11:24:27;7.50;71.70
4840;DHT22;2434;48.486;7.964;2023-01-10T11:26:57;7.60;71.90
4840;DHT22;2434;48.486;7.964;2023-01-10T11:29:31;7.50;70.40
4840;DHT22;2434;48.486;7.964;2023-01-10T11:32:08;7.50;71.50
4840;DHT22;2434;48.486;7.964;2023-01-10T11:34:36;7.50;71.70
4840;DHT22;2434;48.486;7.964;2023-01-10T11:37:18;7.60;70.50
4840;DHT22;2434;48.486;7.964;2023-01-10T11:39:47;7.60;70.50
4840;DHT22;2434;48.486;7.964;2023-01-10T11:42:26;7.70;68.50
4840;DHT22;2434;48.486;7.964;2023-01-10T11:45:20;7.70;67.90
4840;DHT22;2434;48.486;7.964;2023-01-10T11:47:51;7.70;68.40
4840;DHT22;2434;48.486;7.964;2023-01-10T11:50:23;7.90;68.20
4840;DHT22;2434;48.486;7.964;2023-01-10T11:52:54;8.00;67.30
4840;DHT22;2434;48.486;7.964;2023-01-10T11:55:25;8.10;67.60
4840;DHT22;2434;48.486;7.964;2023-01-10T11:58:02;8.00;66.00
4840;DHT22;2434;48.486;7.964;2023-01-10T12:00:34;8.00;65.80
4840;DHT22;2434;48.486;7.964;2023-01-10T12:03:15;8.00;64.70
4840;DHT22;2434;48.486;7.964;2023-01-10T12:05:51;7.90;65.50
4840;DHT22;2434;48.486;7.964;2023-01-10T12:08:27;8.00;66.50
4840;DHT22;2434;48.486;7.964;2023-01-10T12:11:02;8.00;66.20
4840;DHT22;2434;48.486;7.964;2023-01-10T12:13:44;8.20;67.70
4840;DHT22;2434;48.486;7.964;2023-01-10T12:16:21;8.20;66.70
4840;DHT22;2434;48.486;7.964;2023-01-10T12:18:52;8.20;65.00
4840;DHT22;2434;48.486;7.964;2023-01-10T12:21:24;8.20;60.50
4840;DHT22;2434;48.486;7.964;2023-01-10T12:23:58;8.20;61.10
4840;DHT22;2434;48.486;7.964;2023-01-10T12:26:30;8.20;61.70
4840;DHT22;2434;48.486;7.964;2023-01-10T12:29:04;8.20;61.80
4840;DHT22;2434;48.486;7.964;2023-01-10T12:31:36;8.00;62.90
4840;DHT22;2434;48.486;7.964;2023-01-10T12:34:12;8.00;62.50
4840;DHT22;2434;48.486;7.964;2023-01-10T12:36:48;8.10;63.40
4840;DHT22;2434;48.486;7.964;2023-01-10T12:39:21;8.30;58.60
4840;DHT22;2434;48.486;7.964;2023-01-10T12:42:03;8.30;55.60
4840;DHT22;2434;48.486;7.964;2023-01-10T12:45:00;8.40;54.40
4840;DHT22;2434;48.486;7.964;2023-01-10T12:47:33;8.40;54.20
4840;DHT22;2434;48.486;7.964;2023-01-10T12:50:10;8.40;54.20
4840;DHT22;2434;48.486;7.964;2023-01-10T12:52:42;8.40;54.70
4840;DHT22;2434;48.486;7.964;2023-01-10T12:55:15;8.30;56.10
4840;DHT22;2434;48.486;7.964;2023-01-10T12:57:46;8.20;56.90
4840;DHT22;2434;48.486;7.964;2023-01-10T13:00:20;8.20;55.90
4840;DHT22;2434;48.486;7.964;2023-01-10T13:02:53;8.30;54.30
4840;DHT22;2434;48.486;7.964;2023-01-10T13:05:24;8.30;55.70
4840;DHT22;2434;48.486;7.964;2023-01-10T13:07:58;8.40;55.40
4840;DHT22;2434;48.486;7.964;2023-01-10T13:10:29;8.40;55.70
4840;DHT22;2434;48.486;7.964;2023-01-10T13:13:01;8.30;55.30
4840;DHT22;2434;48.486;7.964;2023-01-10T13:15:33;8.30;55.20
4840;DHT22;2434;48.486;7.964;2023-01-10T13:18:13;8.30;54.20
4840;DHT22;2434;48.486;7.964;2023-01-10T13:20:43;8.20;54.90
4840;DHT22;2434;48.486;7.964;2023-01-10T13:23:19;8.20;55.70
4840;DHT22;2434;48.486;7.964;2023-01-10T13:25:59;8.30;56.40
4840;DHT22;2434;48.486;7.964;2023-01-10T13:28:29;8.30;55.00
4840;DHT22;2434;48.486;7.964;2023-01-10T13:31:00;8.20;55.90
4840;DHT22;2434;48.486;7.964;2023-01-10T13:33:31;8.20;54.90
4840;DHT22;2434;48.486;7.964;2023-01-10T13:36:16;8.20;56.10
4840;DHT22;2434;48.486;7.964;2023-01-10T13:38:49;8.20;54.30
4840;DHT22;2434;48.486;7.964;2023-01-10T13:41:19;8.10;54.80
4840;DHT22;2434;48.486;7.964;2023-01-10T13:44:08;8.20;54.40
4840;DHT22;2434;48.486;7.964;2023-01-10T13:46:47;8.10;54.60
4840;DHT22;2434;48.486;7.964;2023-01-10T13:49:47;8.00;54.80
4840;DHT22;2434;48.486;7.964;2023-01-10T13:52:32;8.10;53.80
4840;DHT22;2434;48.486;7.964;2023-01-10T13:55:19;8.10;54.20
4840;DHT22;2434;48.486;7.964;2023-01-10T13:57:53;8.20;54.20
4840;DHT22;2434;48.486;7.964;2023-01-10T14:00:24;8.10;53.00
4840;DHT22;2434;48.486;7.964;2023-01-10T14:06:19;8.20;53.50
4840;DHT22;2434;48.486;7.964;2023-01-10T14:08:59;8.20;51.80
4840;DHT22;2434;48.486;7.964;2023-01-10T14:11:31;8.10;51.80
4840;DHT22;2434;48.486;7.964;2023-01-10T14:14:02;8.10;52.20
4840;DHT22;2434;48.486;7.964;2023-01-10T14:16:33;8.00;52.90
4840;DHT22;2434;48.486;7.964;2023-01-10T14:19:04;8.10;51.60
4840;DHT22;2434;48.486;7.964;2023-01-10T14:21:37;8.20;51.30
4840;DHT22;2434;48.486;7.964;2023-01-10T14:24:23;8.20;51.70
4840;DHT22;2434;48.486;7.964;2023-01-10T14:26:53;8.20;51.70
4840;DHT22;2434;48.486;7.964;2023-01-10T14:29:26;8.20;51.90
4840;DHT22;2434;48.486;7.964;2023-01-10T14:31:57;8.20;50.40
4840;DHT22;2434;48.486;7.964;2023-01-10T14:34:27;8.10;50.10
4840;DHT22;2434;48.486;7.964;2023-01-10T14:36:57;8.10;50.70
4840;DHT22;2434;48.486;7.964;2023-01-10T14:39:28;8.10;51.10
4840;DHT22;2434;48.486;7.964;2023-01-10T14:41:59;8.10;51.20
4840;DHT22;2434;48.486;7.964;2023-01-10T14:44:34;8.10;51.00
4840;DHT22;2434;48.486;7.964;2023-01-10T14:47:04;8.20;50.30
4840;DHT22;2434;48.486;7.964;2023-01-10T14:49:34;8.10;51.50
4840;DHT22;2434;48.486;7.964;2023-01-10T14:52:15;8.10;51.50
4840;DHT22;2434;48.486;7.964;2023-01-10T14:54:45;8.10;52.10
4840;DHT22;2434;48.486;7.964;2023-01-10T14:57:18;8.10;52.00
4840;DHT22;2434;48.486;7.964;2023-01-10T14:59:49;8.00;52.10
4840;DHT22;2434;48.486;7.964;2023-01-10T15:02:20;8.00;52.00
4840;DHT22;2434;48.486;7.964;2023-01-10T15:04:53;8.00;52.80
4840;DHT22;2434;48.486;7.964;2023-01-10T15:07:23;8.10;53.10
4840;DHT22;2434;48.486;7.964;2023-01-10T15:09:54;8.10;53.10
4840;DHT22;2434;48.486;7.964;2023-01-10T15:12:24;8.10;51.70
4840;DHT22;2434;48.486;7.964;2023-01-10T15:14:59;8.10;51.40
4840;DHT22;2434;48.486;7.964;2023-01-10T15:17:29;8.00;51.60
4840;DHT22;2434;48.486;7.964;2023-01-10T15:19:58;7.90;52.60
4840;DHT22;2434;48.486;7.964;2023-01-10T15:22:28;7.90;51.00
4840;DHT22;2434;48.486;7.964;2023-01-10T15:24:59;7.90;50.30
4840;DHT22;2434;48.486;7.964;2023-01-10T15:27:28;7.90;50.70
4840;DHT22;2434;48.486;7.964;2023-01-10T15:29:59;8.00;50.50
4840;DHT22;2434;48.486;7.964;2023-01-10T15:32:32;7.90;50.70
4840;DHT22;2434;48.486;7.964;2023-01-10T15:35:01;8.00;50.40
4840;DHT22;2434;48.486;7.964;2023-01-10T15:37:32;7.90;51.20
4840;DHT22;2434;48.486;7.964;2023-01-10T15:40:03;8.00;50.40
4840;DHT22;2434;48.486;7.964;2023-01-10T15:42:33;8.00;50.60
4840;DHT22;2434;48.486;7.964;2023-01-10T15:45:21;8.00;51.70
4840;DHT22;2434;48.486;7.964;2023-01-10T15:47:53;8.00;51.00
4840;DHT22;2434;48.486;7.964;2023-01-10T15:50:30;8.00;51.40
4840;DHT22;2434;48.486;7.964;2023-01-10T15:53:01;7.90;51.80
4840;DHT22;2434;48.486;7.964;2023-01-10T15:55:42;8.00;51.70
4840;DHT22;2434;48.486;7.964;2023-01-10T15:58:18;7.90;51.10
4840;DHT22;2434;48.486;7.964;2023-01-10T16:00:52;7.80;52.10
4840;DHT22;2434;48.486;7.964;2023-01-10T16:03:25;7.90;52.20
4840;DHT22;2434;48.486;7.964;2023-01-10T16:05:56;7.80;51.90
4840;DHT22;2434;48.486;7.964;2023-01-10T16:08:27;7.80;51.70
4840;DHT22;2434;48.486;7.964;2023-01-10T16:10:58;7.70;52.40
4840;DHT22;2434;48.486;7.964;2023-01-10T16:13:26;7.90;52.00
4840;DHT22;2434;48.486;7.964;2023-01-10T16:15:57;7.90;51.90
4840;DHT22;2434;48.486;7.964;2023-01-10T16:18:26;7.90;51.70
4840;DHT22;2434;48.486;7.964;2023-01-10T16:20:56;7.80;51.10
4840;DHT22;2434;48.486;7.964;2023-01-10T16:23:30;7.80;51.80
4840;DHT22;2434;48.486;7.964;2023-01-10T16:26:01;7.80;52.10
4840;DHT22;2434;48.486;7.964;2023-01-10T16:28:31;7.80;51.50
4840;DHT22;2434;48.486;7.964;2023-01-10T16:31:03;7.70;52.50
4840;DHT22;2434;48.486;7.964;2023-01-10T16:33:33;7.70;52.40
4840;DHT22;2434;48.486;7.964;2023-01-10T16:36:08;7.70;52.10
4840;DHT22;2434;48.486;7.964;2023-01-10T16:38:40;7.70;51.60
4840;DHT22;2434;48.486;7.964;2023-01-10T16:41:10;7.60;52.40
4840;DHT22;2434;48.486;7.964;2023-01-10T16:43:56;7.60;51.80
4840;DHT22;2434;48.486;7.964;2023-01-10T16:46:25;7.60;52.10
4840;DHT22;2434;48.486;7.964;2023-01-10T16:48:54;7.60;51.70
4840;DHT22;2434;48.486;7.964;2023-01-10T16:51:25;7.60;51.80
4840;DHT22;2434;48.486;7.964;2023-01-10T16:53:54;7.60;52.10
4840;DHT22;2434;48.486;7.964;2023-01-10T16:56:24;7.60;51.60
4840;DHT22;2434;48.486;7.964;2023-01-10T16:58:53;7.60;50.90
4840;DHT22;2434;48.486;7.964;2023-01-10T17:01:23;7.60;51.60
4840;DHT22;2434;48.486;7.964;2023-01-10T17:03:56;7.60;51.30
4840;DHT22;2434;48.486;7.964;2023-01-10T17:06:24;7.60;52.10
4840;DHT22;2434;48.486;7.964;2023-01-10T17:08:53;7.60;51.80
4840;DHT22;2434;48.486;7.964;2023-01-10T17:11:25;7.60;52.30
4840;DHT22;2434;48.486;7.964;2023-01-10T17:13:53;7.60;52.00